createdAt,value
2023-01-03T00:01:37.941Z,19.33
2023-01-03T00:04:07.022Z,16.42
2023-01-03T00:06:38.508Z,17.55
2023-01-03T00:09:09.861Z,16.75
2023-01-03T00:11:56.725Z,17.10
2023-01-03T00:14:27.907Z,16.88
2023-01-03T00:16:58.574Z,16.08
2023-01-03T00:19:31.879Z,15.43
2023-01-03T00:22:01.489Z,17.88
2023-01-03T00:24:30.181Z,15.75
2023-01-03T00:26:58.533Z,15.88
2023-01-03T00:29:27.464Z,12.77
2023-01-03T00:31:55.839Z,13.60
2023-01-03T00:34:24.839Z,17.25
2023-01-03T00:36:53.351Z,17.45
2023-01-03T00:39:23.832Z,13.68
2023-01-03T00:41:52.272Z,18.27
2023-01-03T00:44:21.414Z,15.13
2023-01-03T00:46:49.807Z,16.80
2023-01-03T00:49:18.465Z,16.83
2023-01-03T00:51:46.805Z,17.15
2023-01-03T00:54:16.406Z,18.27
2023-01-03T00:56:47.502Z,19.35
2023-01-03T00:59:17.552Z,19.05
2023-01-03T01:01:48.324Z,16.08
2023-01-03T01:04:19.645Z,20.85
2023-01-03T01:06:50.735Z,18.13
2023-01-03T01:11:50.120Z,15.65
2023-01-03T01:14:23.124Z,17.25
2023-01-03T01:16:54.278Z,16.20
2023-01-03T01:21:51.612Z,17.25
2023-01-03T01:24:20.523Z,15.52
2023-01-03T01:26:50.459Z,13.55
2023-01-03T01:29:19.297Z,14.68
2023-01-03T01:31:48.283Z,17.80
2023-01-03T01:34:17.647Z,17.85
2023-01-03T01:36:47.288Z,17.20
2023-01-03T01:39:18.236Z,18.23
2023-01-03T01:42:05.415Z,15.82
2023-01-03T01:44:49.194Z,18.20
2023-01-03T01:47:22.424Z,18.52
2023-01-03T01:49:53.446Z,16.65
2023-01-03T01:52:22.561Z,16.05
2023-01-03T01:54:53.196Z,17.65
2023-01-03T01:57:23.197Z,18.05
2023-01-03T01:59:53.186Z,17.95
2023-01-03T02:02:23.468Z,16.80
2023-01-03T02:04:55.038Z,17.88
2023-01-03T02:07:24.241Z,16.95
2023-01-03T02:09:55.672Z,18.70
2023-01-03T02:12:47.508Z,17.98
2023-01-03T02:15:33.936Z,19.67
2023-01-03T02:18:13.030Z,18.10
2023-01-03T02:21:01.061Z,16.83
2023-01-03T02:23:41.726Z,17.23
2023-01-03T02:26:34.970Z,17.58
2023-01-03T02:29:21.006Z,16.80
2023-01-03T02:31:55.076Z,16.75
2023-01-03T02:34:29.132Z,15.23
2023-01-03T02:37:07.577Z,17.15
2023-01-03T02:39:40.846Z,17.13
2023-01-03T02:42:30.084Z,15.55
2023-01-03T02:45:04.525Z,18.23
2023-01-03T02:47:39.222Z,16.75
2023-01-03T02:50:12.571Z,15.75
2023-01-03T02:52:42.688Z,17.80
2023-01-03T02:55:15.726Z,16.05
2023-01-03T02:57:49.255Z,20.63
2023-01-03T03:00:20.805Z,17.50
2023-01-03T03:02:53.405Z,18.25
2023-01-03T03:05:24.914Z,19.25
2023-01-03T03:07:54.029Z,23.27
2023-01-03T03:10:40.747Z,19.13
2023-01-03T03:13:15.098Z,22.35
2023-01-03T03:15:49.404Z,20.15
2023-01-03T03:18:21.161Z,20.73
2023-01-03T03:23:55.832Z,21.25
2023-01-03T03:26:27.540Z,16.83
2023-01-03T03:28:58.230Z,15.07
2023-01-03T03:31:32.576Z,16.75
2023-01-03T03:34:07.993Z,20.45
2023-01-03T03:36:43.136Z,18.30
2023-01-03T03:39:27.024Z,17.63
2023-01-03T03:42:15.884Z,18.13
2023-01-03T03:45:03.053Z,17.75
2023-01-03T03:47:39.377Z,18.90
2023-01-03T03:50:15.060Z,16.63
2023-01-03T03:52:47.351Z,19.77
2023-01-03T03:55:18.900Z,18.35
2023-01-03T04:00:19.838Z,15.70
2023-01-03T04:02:48.351Z,15.85
2023-01-03T04:05:22.672Z,17.67
2023-01-03T04:07:51.083Z,16.98
2023-01-03T04:10:21.196Z,16.20
2023-01-03T04:12:50.328Z,17.63
2023-01-03T04:15:19.341Z,17.90
2023-01-03T04:17:47.717Z,16.48
2023-01-03T04:20:16.419Z,15.27
2023-01-03T04:22:46.451Z,17.92
2023-01-03T04:25:15.115Z,15.85
2023-01-03T04:27:43.471Z,16.73
2023-01-03T04:30:13.221Z,15.95
2023-01-03T04:32:41.631Z,15.43
2023-01-03T04:35:10.843Z,15.25
2023-01-03T04:37:39.148Z,17.63
2023-01-03T04:40:10.704Z,15.60
2023-01-03T04:42:56.302Z,16.25
2023-01-03T04:45:25.174Z,17.75
2023-01-03T04:47:55.087Z,16.70
2023-01-03T04:50:24.403Z,17.95
2023-01-03T04:52:52.792Z,15.85
2023-01-03T04:55:23.038Z,16.00
2023-01-03T04:57:51.525Z,19.02
2023-01-03T05:00:20.259Z,16.17
2023-01-03T05:02:48.517Z,16.25
2023-01-03T05:05:17.475Z,15.82
2023-01-03T05:07:48.450Z,15.27
2023-01-03T05:10:16.981Z,15.75
2023-01-03T05:13:00.107Z,20.60
2023-01-03T05:15:29.142Z,17.50
2023-01-03T05:17:57.536Z,18.95
2023-01-03T05:20:43.361Z,21.27
2023-01-03T05:23:31.712Z,18.20
2023-01-03T05:26:00.587Z,18.63
2023-01-03T05:28:30.832Z,21.55
2023-01-03T05:31:00.638Z,19.98
2023-01-03T05:33:29.017Z,23.42
2023-01-03T05:35:58.342Z,23.48
2023-01-03T05:38:26.781Z,23.23
2023-01-03T05:40:55.425Z,22.65
2023-01-03T05:43:23.767Z,24.35
2023-01-03T05:45:54.480Z,24.33
2023-01-03T05:48:23.603Z,24.25
2023-01-03T05:50:52.949Z,22.40
2023-01-03T05:53:21.283Z,24.33
2023-01-03T05:55:50.038Z,24.85
2023-01-03T05:58:18.388Z,23.98
2023-01-03T06:00:47.060Z,24.88
2023-01-03T06:03:16.735Z,34.20
2023-01-03T06:05:50.142Z,24.75
2023-01-03T06:08:18.783Z,23.98
2023-01-03T06:10:47.764Z,27.45
2023-01-03T06:13:16.176Z,30.92
2023-01-03T06:16:05.775Z,29.10
2023-01-03T06:18:36.290Z,20.77
2023-01-03T06:21:05.522Z,20.73
2023-01-03T06:23:34.056Z,20.35
2023-01-03T06:26:04.638Z,21.08
2023-01-03T06:28:33.167Z,23.17
2023-01-03T06:31:02.472Z,19.55
2023-01-03T06:33:31.187Z,17.45
2023-01-03T06:36:05.301Z,19.98
2023-01-03T06:38:33.903Z,17.08
2023-01-03T06:41:02.949Z,19.88
2023-01-03T06:43:31.613Z,26.60
2023-01-03T06:46:18.672Z,21.30
2023-01-03T06:49:04.979Z,23.33
2023-01-03T06:51:53.236Z,21.52
2023-01-03T06:54:23.495Z,37.05
2023-01-03T06:56:53.404Z,39.00
2023-01-03T06:59:22.547Z,24.00
2023-01-03T07:01:52.706Z,26.60
2023-01-03T07:04:22.357Z,23.05
2023-01-03T07:06:52.915Z,20.70
2023-01-03T07:09:21.471Z,20.75
2023-01-03T07:11:50.466Z,23.30
2023-01-03T07:14:19.216Z,20.92
2023-01-03T07:16:49.545Z,19.40
2023-01-03T07:19:20.240Z,22.00
2023-01-03T07:21:48.987Z,20.52
2023-01-03T07:24:20.278Z,24.88
2023-01-03T07:26:49.237Z,19.35
2023-01-03T07:29:17.765Z,19.20
2023-01-03T07:31:46.339Z,22.15
2023-01-03T07:34:15.283Z,21.00
2023-01-03T07:36:43.791Z,19.42
2023-01-03T07:39:12.164Z,16.85
2023-01-03T07:41:59.575Z,17.20
2023-01-03T07:44:27.940Z,18.75
2023-01-03T07:46:56.982Z,16.67
2023-01-03T07:49:25.358Z,16.40
2023-01-03T07:51:54.143Z,22.80
2023-01-03T07:54:22.911Z,34.42
2023-01-03T07:56:53.019Z,25.23
2023-01-03T07:59:21.615Z,20.70
2023-01-03T08:01:50.735Z,18.50
2023-01-03T08:04:19.400Z,16.35
2023-01-03T08:06:49.343Z,16.58
2023-01-03T08:09:35.750Z,18.00
2023-01-03T08:12:24.579Z,17.17
2023-01-03T08:14:53.850Z,16.63
2023-01-03T08:17:22.851Z,14.13
2023-01-03T08:19:51.476Z,14.95
2023-01-03T08:22:20.582Z,13.15
2023-01-03T08:24:49.102Z,19.05
2023-01-03T08:27:19.479Z,15.25
2023-01-03T08:29:48.062Z,12.52
2023-01-03T08:32:17.220Z,11.23
2023-01-03T08:34:48.602Z,14.02
2023-01-03T08:37:18.002Z,10.93
2023-01-03T08:39:50.052Z,12.63
2023-01-03T08:42:23.719Z,11.90
2023-01-03T08:44:56.715Z,13.25
2023-01-03T08:47:25.999Z,16.70
2023-01-03T08:49:54.595Z,17.52
2023-01-03T08:52:23.532Z,25.30
2023-01-03T08:54:52.183Z,17.30
2023-01-03T08:57:22.285Z,13.05
2023-01-03T08:59:50.934Z,12.50
2023-01-03T09:02:19.878Z,14.85
2023-01-03T09:04:48.776Z,24.17
2023-01-03T09:07:18.072Z,16.38
2023-01-03T09:09:46.539Z,8.57
2023-01-03T09:12:16.025Z,8.45
2023-01-03T09:14:46.508Z,11.45
2023-01-03T09:17:15.385Z,20.65
2023-01-03T09:19:44.338Z,10.48
2023-01-03T09:22:14.767Z,34.92
2023-01-03T09:24:43.282Z,9.45
2023-01-03T09:27:12.013Z,11.27
2023-01-03T09:29:40.560Z,48.40
2023-01-03T09:32:11.486Z,10.50
2023-01-03T09:34:39.948Z,9.57
2023-01-03T09:37:08.866Z,15.60
2023-01-03T09:39:37.330Z,47.13
2023-01-03T09:42:24.122Z,11.57
2023-01-03T09:44:53.247Z,6.95
2023-01-03T09:47:25.923Z,9.18
2023-01-03T09:53:02.987Z,11.98
2023-01-03T09:55:54.600Z,10.27
2023-01-03T09:58:41.113Z,6.18
2023-01-03T10:01:43.266Z,7.07
2023-01-03T10:04:37.916Z,7.38
2023-01-03T10:07:17.017Z,11.77
2023-01-03T10:09:53.575Z,13.90
2023-01-03T10:12:27.972Z,7.93
2023-01-03T10:15:13.545Z,8.98
2023-01-03T10:17:47.404Z,7.15
2023-01-03T10:20:31.043Z,11.38
2023-01-03T10:23:02.894Z,11.70
2023-01-03T10:25:32.985Z,6.88
2023-01-03T10:28:05.744Z,6.60
2023-01-03T10:30:50.669Z,7.70
2023-01-03T10:33:30.892Z,10.45
2023-01-03T10:36:01.889Z,10.43
2023-01-03T10:38:31.399Z,37.90
2023-01-03T10:41:03.523Z,26.13
2023-01-03T10:43:33.868Z,16.92
2023-01-03T10:46:05.221Z,9.27
2023-01-03T10:51:35.719Z,10.13
2023-01-03T10:54:13.298Z,10.85
2023-01-03T10:56:42.065Z,5.55
2023-01-03T10:59:16.632Z,9.65
2023-01-03T11:01:59.080Z,18.42
2023-01-03T11:04:51.546Z,7.88
2023-01-03T11:07:31.174Z,10.73
2023-01-03T11:10:00.525Z,8.43
2023-01-03T11:12:31.471Z,6.18
2023-01-03T11:15:01.390Z,6.70
2023-01-03T11:17:35.884Z,5.97
2023-01-03T11:20:05.539Z,5.63
2023-01-03T11:22:43.995Z,16.42
2023-01-03T11:25:37.227Z,19.10
2023-01-03T11:28:32.351Z,13.27
2023-01-03T11:34:25.413Z,13.68
2023-01-03T11:36:56.712Z,8.25
2023-01-03T11:39:47.516Z,11.40
2023-01-03T11:42:38.748Z,21.50
2023-01-03T11:45:35.324Z,12.20
2023-01-03T11:48:19.153Z,8.13
2023-01-03T11:50:59.857Z,6.03
2023-01-03T11:53:36.723Z,9.38
2023-01-03T11:56:20.536Z,11.02
2023-01-03T11:59:14.872Z,10.60
2023-01-03T12:01:55.717Z,6.47
2023-01-03T12:04:32.262Z,13.35
2023-01-03T12:07:47.076Z,5.15
2023-01-03T12:10:16.506Z,11.25
2023-01-03T12:13:13.612Z,8.98
2023-01-03T12:15:47.139Z,18.50
2023-01-03T12:18:28.367Z,11.38
2023-01-03T12:21:05.052Z,10.15
2023-01-03T12:23:48.067Z,9.55
2023-01-03T12:31:49.777Z,19.45
2023-01-03T12:34:26.121Z,12.30
2023-01-03T12:37:01.905Z,10.43
2023-01-03T12:39:41.925Z,13.40
2023-01-03T12:42:24.014Z,6.43
2023-01-03T12:45:05.010Z,10.25
2023-01-03T12:47:40.770Z,7.63
2023-01-03T12:53:19.351Z,9.85
2023-01-03T12:56:07.878Z,13.13
2023-01-03T12:58:52.248Z,13.30
2023-01-03T13:01:34.525Z,37.45
2023-01-03T13:04:15.286Z,24.67
2023-01-03T13:07:23.058Z,9.65
2023-01-03T13:10:04.411Z,9.95
2023-01-03T13:12:37.303Z,22.40
2023-01-03T13:15:20.860Z,13.30
2023-01-03T13:17:52.300Z,9.05
2023-01-03T13:20:46.255Z,21.35
2023-01-03T13:23:34.804Z,12.85
2023-01-03T13:26:23.048Z,20.63
2023-01-03T13:28:54.486Z,11.13
2023-01-03T13:31:40.502Z,12.32
2023-01-03T13:34:52.427Z,29.85
2023-01-03T13:37:33.775Z,14.55
2023-01-03T13:41:15.491Z,14.10
2023-01-03T13:43:24.895Z,10.27
2023-01-03T13:45:58.825Z,19.65
2023-01-03T13:48:34.595Z,18.90
2023-01-03T13:55:19.692Z,18.58
2023-01-03T13:58:00.768Z,13.32
2023-01-03T14:00:48.950Z,15.85
2023-01-03T14:03:57.205Z,15.93
2023-01-03T14:07:00.230Z,16.75
2023-01-03T14:10:05.416Z,13.20
2023-01-03T14:13:12.150Z,14.50
2023-01-03T14:15:51.843Z,23.17
2023-01-03T14:18:25.380Z,15.30
2023-01-03T14:21:02.686Z,20.05
2023-01-03T14:26:26.831Z,13.32
2023-01-03T14:28:59.592Z,13.43
2023-01-03T14:31:28.951Z,13.30
2023-01-03T14:34:00.056Z,11.93
2023-01-03T14:36:29.094Z,13.13
2023-01-03T14:38:59.988Z,18.83
2023-01-03T14:41:32.693Z,17.83
2023-01-03T14:44:08.015Z,15.93
2023-01-03T14:46:41.033Z,20.70
2023-01-03T14:49:37.239Z,16.85
2023-01-03T14:52:11.049Z,20.75
2023-01-03T14:55:18.484Z,22.75
2023-01-03T14:57:53.209Z,26.85
2023-01-03T15:00:32.986Z,24.67
2023-01-03T15:06:11.228Z,19.05
2023-01-03T15:08:53.425Z,18.98
2023-01-03T15:11:30.668Z,20.80
2023-01-03T15:17:12.335Z,23.00
2023-01-03T15:19:44.091Z,33.00
2023-01-03T15:22:19.930Z,29.52
2023-01-03T15:24:54.654Z,30.45
2023-01-03T15:27:45.668Z,29.52
2023-01-03T15:33:39.664Z,38.17
2023-01-03T15:36:26.813Z,32.30
2023-01-03T15:39:16.903Z,40.33
2023-01-03T15:42:35.031Z,40.50
2023-01-03T15:44:59.107Z,42.75
2023-01-03T15:47:33.732Z,35.05
2023-01-03T15:57:13.611Z,31.55
2023-01-03T16:03:01.057Z,77.47
2023-01-03T16:12:17.189Z,22.77
2023-01-03T16:14:51.129Z,32.33
2023-01-03T16:17:30.799Z,32.38
2023-01-03T16:20:03.263Z,31.17
2023-01-03T16:22:40.332Z,27.00
2023-01-03T16:25:17.181Z,32.78
2023-01-03T16:28:00.202Z,35.53
2023-01-03T16:30:48.446Z,38.42
2023-01-03T16:33:21.368Z,24.83
2023-01-03T16:36:05.271Z,34.78
2023-01-03T16:38:53.164Z,37.13
2023-01-03T16:41:22.823Z,35.95
2023-01-03T16:43:55.768Z,50.88
2023-01-03T16:46:31.367Z,47.80
2023-01-03T16:49:06.168Z,39.53
2023-01-03T16:51:57.968Z,34.22
2023-01-03T16:54:29.171Z,39.45
2023-01-03T16:57:01.519Z,38.92
2023-01-03T16:59:36.317Z,32.78
2023-01-03T17:02:12.220Z,38.35
2023-01-03T17:04:44.990Z,30.45
2023-01-03T17:07:23.761Z,41.60
2023-01-03T17:09:56.566Z,52.45
2023-01-03T17:12:32.602Z,76.30
2023-01-03T17:15:06.857Z,76.68
2023-01-03T17:17:37.651Z,67.88
2023-01-03T17:20:16.489Z,77.78
2023-01-03T17:22:48.335Z,72.00
2023-01-03T17:25:17.362Z,66.13
2023-01-03T17:27:49.812Z,66.53
2023-01-03T17:30:20.955Z,63.40
2023-01-03T17:32:51.085Z,66.95
2023-01-03T17:35:22.224Z,42.10
2023-01-03T17:38:24.029Z,36.78
2023-01-03T17:40:44.121Z,30.00
2023-01-03T17:43:20.277Z,42.15
2023-01-03T17:46:09.789Z,36.78
2023-01-03T17:48:58.607Z,38.88
2023-01-03T17:51:31.392Z,49.92
2023-01-03T17:54:00.678Z,42.95
2023-01-03T17:56:30.399Z,59.83
2023-01-03T17:58:59.871Z,78.43
2023-01-03T18:01:34.156Z,74.13
2023-01-03T18:04:06.552Z,76.70
2023-01-03T18:06:40.701Z,61.25
2023-01-03T18:09:17.714Z,38.08
2023-01-03T18:11:57.307Z,34.72
2023-01-03T18:14:25.960Z,38.17
2023-01-03T18:16:55.876Z,41.72
2023-01-03T18:19:28.085Z,47.05
2023-01-03T18:21:58.975Z,40.85
2023-01-03T18:24:33.312Z,47.92
2023-01-03T18:27:03.122Z,44.00
2023-01-03T18:29:32.316Z,53.58
2023-01-03T18:32:01.731Z,52.15
2023-01-03T18:34:38.136Z,46.38
2023-01-03T18:37:10.334Z,43.33
2023-01-03T18:39:40.219Z,44.42
2023-01-03T18:42:29.006Z,44.45
2023-01-03T18:45:01.959Z,62.75
2023-01-03T18:47:33.625Z,118.18
2023-01-03T18:50:05.560Z,87.15
2023-01-03T18:52:38.192Z,54.92
2023-01-03T18:55:10.145Z,48.38
2023-01-03T18:57:39.570Z,43.95
2023-01-03T19:00:13.337Z,40.30
2023-01-03T19:02:42.832Z,44.42
2023-01-03T19:05:16.073Z,45.22
2023-01-03T19:07:49.908Z,38.65
2023-01-03T19:10:23.758Z,36.97
2023-01-03T19:12:55.105Z,39.10
2023-01-03T19:15:26.463Z,35.35
2023-01-03T19:18:05.765Z,38.90
2023-01-03T19:20:40.485Z,40.75
2023-01-03T19:23:13.509Z,50.05
2023-01-03T19:25:59.606Z,48.63
2023-01-03T19:28:35.435Z,58.17
2023-01-03T19:31:05.094Z,49.67
2023-01-03T19:33:35.602Z,54.75
2023-01-03T19:36:10.660Z,52.85
2023-01-03T19:38:44.565Z,46.53
2023-01-03T19:41:17.765Z,43.38
2023-01-03T19:43:48.131Z,46.85
2023-01-03T19:46:22.035Z,46.90
2023-01-03T19:48:52.224Z,40.38
2023-01-03T19:51:23.104Z,44.53
2023-01-03T19:56:24.515Z,40.45
2023-01-03T19:58:59.263Z,44.30
2023-01-03T20:01:50.593Z,42.15
2023-01-03T20:04:21.212Z,39.70
2023-01-03T20:06:51.409Z,41.22
2023-01-03T20:09:20.598Z,42.47
2023-01-03T20:11:54.229Z,42.70
2023-01-03T20:14:24.785Z,39.15
2023-01-03T20:16:53.285Z,43.72
2023-01-03T20:19:22.419Z,39.80
2023-01-03T20:21:52.537Z,48.70
2023-01-03T20:24:23.903Z,42.00
2023-01-03T20:26:55.929Z,45.42
2023-01-03T20:29:24.633Z,40.33
2023-01-03T20:31:53.080Z,49.63
2023-01-03T20:34:21.928Z,42.28
2023-01-03T20:36:53.426Z,41.35
2023-01-03T20:39:26.856Z,42.83
2023-01-03T20:42:01.553Z,44.78
2023-01-03T20:44:32.174Z,47.33
2023-01-03T20:47:01.478Z,43.08
2023-01-03T20:49:30.316Z,40.70
2023-01-03T20:52:00.148Z,48.50
2023-01-03T20:54:28.868Z,48.05
2023-01-03T20:56:57.500Z,44.92
2023-01-03T20:59:26.290Z,41.47
2023-01-03T21:01:54.823Z,42.70
2023-01-03T21:04:23.517Z,39.85
2023-01-03T21:06:53.509Z,40.97
2023-01-03T21:09:22.936Z,40.87
2023-01-03T21:11:51.753Z,40.67
2023-01-03T21:14:22.682Z,40.50
2023-01-03T21:16:52.601Z,38.35
2023-01-03T21:19:23.180Z,40.67
2023-01-03T21:21:53.806Z,42.45
2023-01-03T21:24:26.183Z,37.80
2023-01-03T21:26:55.728Z,43.63
2023-01-03T21:29:26.336Z,44.22
2023-01-03T21:31:55.395Z,45.33
2023-01-03T21:34:24.936Z,41.03
2023-01-03T21:36:56.158Z,40.00
2023-01-03T21:39:38.462Z,42.47
2023-01-03T21:42:25.340Z,45.53
2023-01-03T21:44:58.223Z,48.95
2023-01-03T21:47:30.626Z,49.08
2023-01-03T21:50:07.590Z,52.05
2023-01-03T21:52:37.160Z,49.60
2023-01-03T21:55:10.748Z,52.55
2023-01-03T21:57:46.632Z,50.05
2023-01-03T22:00:24.009Z,53.65
2023-01-03T22:03:12.522Z,49.65
2023-01-03T22:05:49.896Z,40.97
2023-01-03T22:08:21.051Z,41.83
2023-01-03T22:10:55.850Z,47.53
2023-01-03T22:13:30.615Z,44.80
2023-01-03T22:16:12.168Z,47.65
2023-01-03T22:18:42.524Z,50.33
2023-01-03T22:21:17.103Z,47.50
2023-01-03T22:23:51.830Z,46.72
2023-01-03T22:26:34.539Z,42.20
2023-01-03T22:29:04.448Z,39.97
2023-01-03T22:31:35.332Z,43.25
2023-01-03T22:34:06.227Z,45.63
2023-01-03T22:39:03.815Z,41.88
2023-01-03T22:41:34.267Z,41.35
2023-01-03T22:44:03.443Z,42.33
2023-01-03T22:46:33.236Z,50.50
2023-01-03T22:49:04.798Z,43.80
2023-01-03T22:51:36.357Z,42.17
2023-01-03T22:54:06.622Z,42.38
2023-01-03T22:56:38.428Z,42.88
2023-01-03T22:59:07.108Z,46.78
2023-01-03T23:01:37.609Z,48.97
2023-01-03T23:04:06.858Z,46.72
2023-01-03T23:06:36.698Z,49.05
2023-01-03T23:09:05.291Z,56.13
2023-01-03T23:11:52.168Z,54.95
2023-01-03T23:14:23.558Z,55.72
2023-01-03T23:16:52.953Z,52.42
2023-01-03T23:19:22.784Z,49.15
2023-01-03T23:21:51.420Z,54.70
2023-01-03T23:24:22.539Z,51.25
2023-01-03T23:29:21.374Z,48.15
2023-01-03T23:31:50.408Z,48.17
2023-01-03T23:34:18.916Z,48.85
2023-01-03T23:36:47.711Z,49.08
2023-01-03T23:39:17.553Z,54.10
2023-01-03T23:41:46.833Z,51.70
2023-01-03T23:44:15.109Z,55.58
2023-01-03T23:46:45.215Z,57.75
2023-01-03T23:49:13.798Z,57.40
2023-01-03T23:51:42.634Z,57.20
2023-01-03T23:54:10.934Z,66.57
2023-01-03T23:56:39.749Z,59.78
2023-01-03T23:59:08.004Z,60.42
